sensor_id;sensor_type;location;lat;lon;timestamp;temperature;humidity
21950;DHT22;11139;51.284;7.226;2023-04-03T00:00:11;4.90;99.90
21950;DHT22;11139;51.284;7.226;2023-04-03T00:02:37;4.80;99.90
21950;DHT22;11139;51.284;7.226;2023-04-03T00:05:02;4.80;99.90
21950;DHT22;11139;51.284;7.226;2023-04-03T00:07:28;4.80;99.90
21950;DHT22;11139;51.284;7.226;2023-04-03T00:09:53;4.80;99.90
21950;DHT22;11139;51.284;7.226;2023-04-03T00:12:19;4.80;99.90
21950;DHT22;11139;51.284;7.226;2023-04-03T00:14:44;4.80;99.90
21950;DHT22;11139;51.284;7.226;2023-04-03T00:17:10;4.80;99.90
21950;DHT22;11139;51.284;7.226;2023-04-03T00:19:35;4.80;99.90
21950;DHT22;11139;51.284;7.226;2023-04-03T00:22:01;4.80;99.90
21950;DHT22;11139;51.284;7.226;2023-04-03T00:24:26;4.70;99.90
21950;DHT22;11139;51.284;7.226;2023-04-03T00:26:52;4.70;99.90
21950;DHT22;11139;51.284;7.226;2023-04-03T00:29:17;4.70;99.90
21950;DHT22;11139;51.284;7.226;2023-04-03T00:31:43;4.70;99.90
21950;DHT22;11139;51.284;7.226;2023-04-03T00:34:08;4.70;99.90
21950;DHT22;11139;51.284;7.226;2023-04-03T00:36:34;4.70;99.90
21950;DHT22;11139;51.284;7.226;2023-04-03T00:38:59;4.70;99.90
21950;DHT22;11139;51.284;7.226;2023-04-03T00:41:25;4.70;99.90
21950;DHT22;11139;51.284;7.226;2023-04-03T00:43:50;4.70;99.90
21950;DHT22;11139;51.284;7.226;2023-04-03T00:46:16;4.70;99.90
21950;DHT22;11139;51.284;7.226;2023-04-03T00:48:45;4.70;99.90
21950;DHT22;11139;51.284;7.226;2023-04-03T00:51:13;4.60;99.90
21950;DHT22;11139;51.284;7.226;2023-04-03T00:53:41;4.60;99.90
21950;DHT22;11139;51.284;7.226;2023-04-03T00:56:09;4.60;99.90
21950;DHT22;11139;51.284;7.226;2023-04-03T01:01:33;4.60;99.90
21950;DHT22;11139;51.284;7.226;2023-04-03T01:03:59;4.60;99.90
21950;DHT22;11139;51.284;7.226;2023-04-03T01:06:29;4.60;99.90
21950;DHT22;11139;51.284;7.226;2023-04-03T01:08:59;4.50;99.90
21950;DHT22;11139;51.284;7.226;2023-04-03T01:11:24;4.50;99.90
21950;DHT22;11139;51.284;7.226;2023-04-03T01:13:51;4.50;99.90
21950;DHT22;11139;51.284;7.226;2023-04-03T01:16:16;4.50;99.90
21950;DHT22;11139;51.284;7.226;2023-04-03T01:18:42;4.50;99.90
21950;DHT22;11139;51.284;7.226;2023-04-03T01:26:18;4.50;99.90
21950;DHT22;11139;51.284;7.226;2023-04-03T01:28:43;4.50;99.90
21950;DHT22;11139;51.284;7.226;2023-04-03T01:33:41;4.40;99.90
21950;DHT22;11139;51.284;7.226;2023-04-03T01:36:10;4.40;99.90
21950;DHT22;11139;51.284;7.226;2023-04-03T01:38:38;4.40;99.90
21950;DHT22;11139;51.284;7.226;2023-04-03T01:41:03;4.40;99.90
21950;DHT22;11139;51.284;7.226;2023-04-03T01:43:29;4.40;99.90
21950;DHT22;11139;51.284;7.226;2023-04-03T01:45:54;4.40;99.90
21950;DHT22;11139;51.284;7.226;2023-04-03T01:48:20;4.40;99.90
21950;DHT22;11139;51.284;7.226;2023-04-03T01:50:45;4.40;99.90
21950;DHT22;11139;51.284;7.226;2023-04-03T01:53:11;4.40;99.90
21950;DHT22;11139;51.284;7.226;2023-04-03T01:55:36;4.40;99.90
21950;DHT22;11139;51.284;7.226;2023-04-03T01:58:02;4.40;99.90
21950;DHT22;11139;51.284;7.226;2023-04-03T02:00:27;4.40;99.90
21950;DHT22;11139;51.284;7.226;2023-04-03T02:02:53;4.40;99.90
21950;DHT22;11139;51.284;7.226;2023-04-03T02:05:18;4.30;99.90
21950;DHT22;11139;51.284;7.226;2023-04-03T02:07:44;4.40;99.90
21950;DHT22;11139;51.284;7.226;2023-04-03T02:10:09;4.40;99.90
21950;DHT22;11139;51.284;7.226;2023-04-03T02:12:35;4.30;99.90
21950;DHT22;11139;51.284;7.226;2023-04-03T02:15:01;4.30;99.90
21950;DHT22;11139;51.284;7.226;2023-04-03T02:17:26;4.30;99.90
21950;DHT22;11139;51.284;7.226;2023-04-03T02:19:52;4.30;99.90
21950;DHT22;11139;51.284;7.226;2023-04-03T02:22:17;4.30;99.90
21950;DHT22;11139;51.284;7.226;2023-04-03T02:24:43;4.30;99.90
21950;DHT22;11139;51.284;7.226;2023-04-03T02:27:08;4.30;99.90
21950;DHT22;11139;51.284;7.226;2023-04-03T02:29:34;4.30;99.90
21950;DHT22;11139;51.284;7.226;2023-04-03T02:32:00;4.30;99.90
21950;DHT22;11139;51.284;7.226;2023-04-03T02:34:25;4.30;99.90
21950;DHT22;11139;51.284;7.226;2023-04-03T02:36:50;4.20;99.90
21950;DHT22;11139;51.284;7.226;2023-04-03T02:39:16;4.20;99.90
21950;DHT22;11139;51.284;7.226;2023-04-03T02:41:42;4.20;99.90
21950;DHT22;11139;51.284;7.226;2023-04-03T02:44:08;4.30;99.90
21950;DHT22;11139;51.284;7.226;2023-04-03T02:46:34;4.30;99.90
21950;DHT22;11139;51.284;7.226;2023-04-03T02:49:00;4.30;99.90
21950;DHT22;11139;51.284;7.226;2023-04-03T02:51:25;4.30;99.90
21950;DHT22;11139;51.284;7.226;2023-04-03T02:53:51;4.30;99.90
21950;DHT22;11139;51.284;7.226;2023-04-03T02:56:17;4.30;99.90
21950;DHT22;11139;51.284;7.226;2023-04-03T02:58:43;4.30;99.90
21950;DHT22;11139;51.284;7.226;2023-04-03T03:01:09;4.20;99.90
21950;DHT22;11139;51.284;7.226;2023-04-03T03:03:34;4.30;99.90
21950;DHT22;11139;51.284;7.226;2023-04-03T03:06:10;4.30;99.90
21950;DHT22;11139;51.284;7.226;2023-04-03T03:08:36;4.30;99.90
21950;DHT22;11139;51.284;7.226;2023-04-03T03:11:02;4.30;99.90
21950;DHT22;11139;51.284;7.226;2023-04-03T03:13:27;4.30;99.90
21950;DHT22;11139;51.284;7.226;2023-04-03T03:15:53;4.30;99.90
21950;DHT22;11139;51.284;7.226;2023-04-03T03:18:18;4.30;99.90
21950;DHT22;11139;51.284;7.226;2023-04-03T03:20:44;4.30;99.90
21950;DHT22;11139;51.284;7.226;2023-04-03T03:23:09;4.30;99.90
21950;DHT22;11139;51.284;7.226;2023-04-03T03:25:39;4.30;99.90
21950;DHT22;11139;51.284;7.226;2023-04-03T03:28:05;4.30;99.90
21950;DHT22;11139;51.284;7.226;2023-04-03T03:30:30;4.30;99.90
21950;DHT22;11139;51.284;7.226;2023-04-03T03:32:56;4.30;99.90
21950;DHT22;11139;51.284;7.226;2023-04-03T03:35:21;4.30;99.90
21950;DHT22;11139;51.284;7.226;2023-04-03T03:37:47;4.30;99.90
21950;DHT22;11139;51.284;7.226;2023-04-03T03:40:12;4.30;99.90
21950;DHT22;11139;51.284;7.226;2023-04-03T03:42:38;4.30;99.90
21950;DHT22;11139;51.284;7.226;2023-04-03T03:45:04;4.30;99.90
21950;DHT22;11139;51.284;7.226;2023-04-03T03:47:29;4.30;99.90
21950;DHT22;11139;51.284;7.226;2023-04-03T03:49:55;4.30;99.90
21950;DHT22;11139;51.284;7.226;2023-04-03T03:52:20;4.30;99.90
21950;DHT22;11139;51.284;7.226;2023-04-03T03:54:46;4.20;99.90
21950;DHT22;11139;51.284;7.226;2023-04-03T03:57:11;4.20;99.90
21950;DHT22;11139;51.284;7.226;2023-04-03T03:59:37;4.20;99.90
21950;DHT22;11139;51.284;7.226;2023-04-03T04:02:03;4.30;99.90
21950;DHT22;11139;51.284;7.226;2023-04-03T04:04:29;4.30;99.90
21950;DHT22;11139;51.284;7.226;2023-04-03T04:06:55;4.30;99.90
21950;DHT22;11139;51.284;7.226;2023-04-03T04:09:20;4.20;99.90
21950;DHT22;11139;51.284;7.226;2023-04-03T04:11:46;4.20;99.90
21950;DHT22;11139;51.284;7.226;2023-04-03T04:14:12;4.20;99.90
21950;DHT22;11139;51.284;7.226;2023-04-03T04:16:38;4.20;99.90
21950;DHT22;11139;51.284;7.226;2023-04-03T04:19:04;4.20;99.90
21950;DHT22;11139;51.284;7.226;2023-04-03T04:21:30;4.20;99.90
21950;DHT22;11139;51.284;7.226;2023-04-03T04:23:55;4.20;99.90
21950;DHT22;11139;51.284;7.226;2023-04-03T04:26:21;4.20;99.90
21950;DHT22;11139;51.284;7.226;2023-04-03T04:28:46;4.20;99.90
21950;DHT22;11139;51.284;7.226;2023-04-03T04:31:12;4.10;99.90
21950;DHT22;11139;51.284;7.226;2023-04-03T04:33:37;4.20;99.90
21950;DHT22;11139;51.284;7.226;2023-04-03T04:36:03;4.20;99.90
21950;DHT22;11139;51.284;7.226;2023-04-03T04:38:28;4.10;99.90
21950;DHT22;11139;51.284;7.226;2023-04-03T04:40:54;4.10;99.90
21950;DHT22;11139;51.284;7.226;2023-04-03T04:43:19;4.20;99.90
21950;DHT22;11139;51.284;7.226;2023-04-03T04:45:45;4.10;99.90
21950;DHT22;11139;51.284;7.226;2023-04-03T04:48:10;4.10;99.90
21950;DHT22;11139;51.284;7.226;2023-04-03T04:50:36;4.10;99.90
21950;DHT22;11139;51.284;7.226;2023-04-03T04:53:01;4.10;99.90
21950;DHT22;11139;51.284;7.226;2023-04-03T04:55:27;4.10;99.90
21950;DHT22;11139;51.284;7.226;2023-04-03T04:57:52;4.10;99.90
21950;DHT22;11139;51.284;7.226;2023-04-03T05:00:18;4.10;99.90
21950;DHT22;11139;51.284;7.226;2023-04-03T05:02:44;4.10;99.90
21950;DHT22;11139;51.284;7.226;2023-04-03T05:05:09;4.10;99.90
21950;DHT22;11139;51.284;7.226;2023-04-03T05:07:35;4.10;99.90
21950;DHT22;11139;51.284;7.226;2023-04-03T05:10:01;4.10;99.90
21950;DHT22;11139;51.284;7.226;2023-04-03T05:12:27;4.10;99.90
21950;DHT22;11139;51.284;7.226;2023-04-03T05:14:53;4.10;99.90
21950;DHT22;11139;51.284;7.226;2023-04-03T05:17:18;4.10;99.90
21950;DHT22;11139;51.284;7.226;2023-04-03T05:19:44;4.00;99.90
21950;DHT22;11139;51.284;7.226;2023-04-03T05:22:10;4.00;99.90
21950;DHT22;11139;51.284;7.226;2023-04-03T05:24:35;4.00;99.90
21950;DHT22;11139;51.284;7.226;2023-04-03T05:27:01;4.00;99.90
21950;DHT22;11139;51.284;7.226;2023-04-03T05:29:26;4.00;99.90
21950;DHT22;11139;51.284;7.226;2023-04-03T05:31:52;4.00;99.90
21950;DHT22;11139;51.284;7.226;2023-04-03T05:34:17;4.00;99.90
21950;DHT22;11139;51.284;7.226;2023-04-03T05:36:43;4.00;99.90
21950;DHT22;11139;51.284;7.226;2023-04-03T05:39:08;4.00;99.90
21950;DHT22;11139;51.284;7.226;2023-04-03T05:41:34;4.00;99.90
21950;DHT22;11139;51.284;7.226;2023-04-03T05:43:59;3.90;99.90
21950;DHT22;11139;51.284;7.226;2023-04-03T05:46:25;3.90;99.90
21950;DHT22;11139;51.284;7.226;2023-04-03T05:48:50;3.90;99.90
21950;DHT22;11139;51.284;7.226;2023-04-03T05:51:21;3.90;99.90
21950;DHT22;11139;51.284;7.226;2023-04-03T05:53:47;3.90;99.90
21950;DHT22;11139;51.284;7.226;2023-04-03T05:56:13;3.90;99.90
21950;DHT22;11139;51.284;7.226;2023-04-03T05:58:38;3.90;99.90
21950;DHT22;11139;51.284;7.226;2023-04-03T06:01:04;3.90;99.90
21950;DHT22;11139;51.284;7.226;2023-04-03T06:03:30;3.90;99.90
21950;DHT22;11139;51.284;7.226;2023-04-03T06:05:56;3.90;99.90
21950;DHT22;11139;51.284;7.226;2023-04-03T06:08:22;4.00;99.90
21950;DHT22;11139;51.284;7.226;2023-04-03T06:10:49;4.00;99.90
21950;DHT22;11139;51.284;7.226;2023-04-03T06:13:15;4.00;99.90
21950;DHT22;11139;51.284;7.226;2023-04-03T06:15:41;4.00;99.90
21950;DHT22;11139;51.284;7.226;2023-04-03T06:18:06;4.10;99.90
21950;DHT22;11139;51.284;7.226;2023-04-03T06:20:32;4.10;99.90
21950;DHT22;11139;51.284;7.226;2023-04-03T06:22:57;4.10;99.90
21950;DHT22;11139;51.284;7.226;2023-04-03T06:25:23;4.10;99.90
21950;DHT22;11139;51.284;7.226;2023-04-03T06:27:48;4.10;99.90
21950;DHT22;11139;51.284;7.226;2023-04-03T06:30:14;4.10;99.90
21950;DHT22;11139;51.284;7.226;2023-04-03T06:32:39;4.10;99.90
21950;DHT22;11139;51.284;7.226;2023-04-03T06:35:05;4.10;99.90
21950;DHT22;11139;51.284;7.226;2023-04-03T06:37:31;4.10;99.90
21950;DHT22;11139;51.284;7.226;2023-04-03T06:39:57;4.10;99.90
21950;DHT22;11139;51.284;7.226;2023-04-03T06:42:23;4.10;99.90
21950;DHT22;11139;51.284;7.226;2023-04-03T06:44:49;4.10;99.90
21950;DHT22;11139;51.284;7.226;2023-04-03T06:47:14;4.10;99.90
21950;DHT22;11139;51.284;7.226;2023-04-03T06:49:40;4.10;99.90
21950;DHT22;11139;51.284;7.226;2023-04-03T06:52:06;4.10;99.90
21950;DHT22;11139;51.284;7.226;2023-04-03T06:54:32;4.10;99.90
21950;DHT22;11139;51.284;7.226;2023-04-03T06:56:57;4.10;99.90
21950;DHT22;11139;51.284;7.226;2023-04-03T06:59:23;4.10;99.90
21950;DHT22;11139;51.284;7.226;2023-04-03T07:01:49;4.10;99.90
21950;DHT22;11139;51.284;7.226;2023-04-03T07:04:14;4.10;99.90
21950;DHT22;11139;51.284;7.226;2023-04-03T07:06:40;4.10;99.90
21950;DHT22;11139;51.284;7.226;2023-04-03T07:09:07;4.10;99.90
21950;DHT22;11139;51.284;7.226;2023-04-03T07:11:32;4.10;99.90
21950;DHT22;11139;51.284;7.226;2023-04-03T07:13:58;4.10;99.90
21950;DHT22;11139;51.284;7.226;2023-04-03T07:16:23;4.10;99.90
21950;DHT22;11139;51.284;7.226;2023-04-03T07:18:49;4.10;99.90
21950;DHT22;11139;51.284;7.226;2023-04-03T07:21:14;4.10;99.90
21950;DHT22;11139;51.284;7.226;2023-04-03T07:23:40;4.10;99.90
21950;DHT22;11139;51.284;7.226;2023-04-03T07:26:05;4.10;99.90
21950;DHT22;11139;51.284;7.226;2023-04-03T07:28:31;4.10;99.90
21950;DHT22;11139;51.284;7.226;2023-04-03T07:31:04;4.10;99.90
21950;DHT22;11139;51.284;7.226;2023-04-03T07:33:31;4.10;99.90
21950;DHT22;11139;51.284;7.226;2023-04-03T07:35:56;4.10;99.90
21950;DHT22;11139;51.284;7.226;2023-04-03T07:38:22;4.10;99.90
21950;DHT22;11139;51.284;7.226;2023-04-03T07:40:48;4.10;99.90
21950;DHT22;11139;51.284;7.226;2023-04-03T07:43:15;4.10;99.90
21950;DHT22;11139;51.284;7.226;2023-04-03T07:45:41;4.10;99.90
21950;DHT22;11139;51.284;7.226;2023-04-03T07:48:08;4.10;99.90
21950;DHT22;11139;51.284;7.226;2023-04-03T07:50:34;4.10;99.90
21950;DHT22;11139;51.284;7.226;2023-04-03T07:52:59;4.10;99.90
21950;DHT22;11139;51.284;7.226;2023-04-03T07:55:26;4.10;99.90
21950;DHT22;11139;51.284;7.226;2023-04-03T07:57:51;4.10;99.90
21950;DHT22;11139;51.284;7.226;2023-04-03T08:00:17;4.10;99.90
21950;DHT22;11139;51.284;7.226;2023-04-03T08:02:43;4.10;99.90
21950;DHT22;11139;51.284;7.226;2023-04-03T08:05:09;4.10;99.90
21950;DHT22;11139;51.284;7.226;2023-04-03T08:07:36;4.10;99.90
21950;DHT22;11139;51.284;7.226;2023-04-03T08:10:02;4.10;99.90
21950;DHT22;11139;51.284;7.226;2023-04-03T08:12:27;4.10;99.90
21950;DHT22;11139;51.284;7.226;2023-04-03T08:14:55;4.10;99.90
21950;DHT22;11139;51.284;7.226;2023-04-03T08:17:21;4.10;99.90
21950;DHT22;11139;51.284;7.226;2023-04-03T08:19:46;4.10;99.90
21950;DHT22;11139;51.284;7.226;2023-04-03T08:22:12;4.10;99.90
21950;DHT22;11139;51.284;7.226;2023-04-03T08:24:37;4.20;99.90
21950;DHT22;11139;51.284;7.226;2023-04-03T08:27:03;4.20;99.90
21950;DHT22;11139;51.284;7.226;2023-04-03T08:29:29;4.20;99.90
21950;DHT22;11139;51.284;7.226;2023-04-03T08:31:55;4.20;99.90
21950;DHT22;11139;51.284;7.226;2023-04-03T08:34:20;4.20;99.90
21950;DHT22;11139;51.284;7.226;2023-04-03T08:36:46;4.20;99.90
21950;DHT22;11139;51.284;7.226;2023-04-03T08:39:12;4.20;99.90
21950;DHT22;11139;51.284;7.226;2023-04-03T08:41:41;4.20;99.90
21950;DHT22;11139;51.284;7.226;2023-04-03T08:49:24;4.20;99.90
21950;DHT22;11139;51.284;7.226;2023-04-03T08:51:51;4.20;99.90
21950;DHT22;11139;51.284;7.226;2023-04-03T08:54:22;4.20;99.90
21950;DHT22;11139;51.284;7.226;2023-04-03T08:56:49;4.20;99.90
21950;DHT22;11139;51.284;7.226;2023-04-03T08:59:16;4.20;99.90
21950;DHT22;11139;51.284;7.226;2023-04-03T09:01:44;4.30;99.90
21950;DHT22;11139;51.284;7.226;2023-04-03T09:04:11;4.20;99.90
21950;DHT22;11139;51.284;7.226;2023-04-03T09:06:37;4.30;99.90
21950;DHT22;11139;51.284;7.226;2023-04-03T09:09:21;4.30;99.90
21950;DHT22;11139;51.284;7.226;2023-04-03T09:21:45;4.30;99.90
21950;DHT22;11139;51.284;7.226;2023-04-03T09:24:12;4.30;99.90
21950;DHT22;11139;51.284;7.226;2023-04-03T09:26:43;4.30;99.90
21950;DHT22;11139;51.284;7.226;2023-04-03T09:29:12;4.20;99.90
21950;DHT22;11139;51.284;7.226;2023-04-03T09:31:40;4.30;99.90
21950;DHT22;11139;51.284;7.226;2023-04-03T09:34:14;4.20;99.90
21950;DHT22;11139;51.284;7.226;2023-04-03T09:36:44;4.30;99.90
21950;DHT22;11139;51.284;7.226;2023-04-03T09:39:12;4.30;99.90
21950;DHT22;11139;51.284;7.226;2023-04-03T09:41:38;4.30;99.90
21950;DHT22;11139;51.284;7.226;2023-04-03T09:44:04;4.30;99.90
21950;DHT22;11139;51.284;7.226;2023-04-03T09:46:43;4.30;99.90
21950;DHT22;11139;51.284;7.226;2023-04-03T09:49:08;4.30;99.90
21950;DHT22;11139;51.284;7.226;2023-04-03T09:51:36;4.30;99.90
21950;DHT22;11139;51.284;7.226;2023-04-03T09:54:23;4.30;99.90
21950;DHT22;11139;51.284;7.226;2023-04-03T09:56:51;4.30;99.90
21950;DHT22;11139;51.284;7.226;2023-04-03T09:59:16;4.30;99.90
21950;DHT22;11139;51.284;7.226;2023-04-03T10:01:43;4.30;99.90
21950;DHT22;11139;51.284;7.226;2023-04-03T10:04:14;4.40;99.90
21950;DHT22;11139;51.284;7.226;2023-04-03T10:09:32;4.40;99.90
21950;DHT22;11139;51.284;7.226;2023-04-03T10:14:27;4.40;99.90
21950;DHT22;11139;51.284;7.226;2023-04-03T10:17:02;4.40;99.90
21950;DHT22;11139;51.284;7.226;2023-04-03T10:22:02;4.40;99.90
21950;DHT22;11139;51.284;7.226;2023-04-03T10:27:18;4.50;99.90
21950;DHT22;11139;51.284;7.226;2023-04-03T10:40:57;4.50;99.90
21950;DHT22;11139;51.284;7.226;2023-04-03T10:53:43;4.60;99.90
21950;DHT22;11139;51.284;7.226;2023-04-03T10:56:15;4.60;99.90
21950;DHT22;11139;51.284;7.226;2023-04-03T10:58:44;4.70;99.90
21950;DHT22;11139;51.284;7.226;2023-04-03T11:01:12;4.70;99.90
21950;DHT22;11139;51.284;7.226;2023-04-03T11:03:40;4.70;99.90
21950;DHT22;11139;51.284;7.226;2023-04-03T11:06:08;4.80;99.90
21950;DHT22;11139;51.284;7.226;2023-04-03T11:08:50;4.80;99.90
21950;DHT22;11139;51.284;7.226;2023-04-03T11:11:26;4.80;99.90
21950;DHT22;11139;51.284;7.226;2023-04-03T11:14:03;4.90;99.90
21950;DHT22;11139;51.284;7.226;2023-04-03T11:16:33;4.90;99.90
21950;DHT22;11139;51.284;7.226;2023-04-03T11:19:07;4.80;99.90
21950;DHT22;11139;51.284;7.226;2023-04-03T11:21:40;4.90;99.90
21950;DHT22;11139;51.284;7.226;2023-04-03T11:24:10;4.90;99.90
21950;DHT22;11139;51.284;7.226;2023-04-03T11:26:43;4.90;99.90
21950;DHT22;11139;51.284;7.226;2023-04-03T11:29:13;4.90;99.90
21950;DHT22;11139;51.284;7.226;2023-04-03T11:36:48;5.00;99.90
21950;DHT22;11139;51.284;7.226;2023-04-03T11:39:33;5.00;99.90
21950;DHT22;11139;51.284;7.226;2023-04-03T11:42:16;5.00;99.90
21950;DHT22;11139;51.284;7.226;2023-04-03T11:44:44;5.00;99.90
21950;DHT22;11139;51.284;7.226;2023-04-03T11:47:11;5.10;99.90
21950;DHT22;11139;51.284;7.226;2023-04-03T11:49:50;5.10;99.90
21950;DHT22;11139;51.284;7.226;2023-04-03T11:55:00;5.10;99.90
21950;DHT22;11139;51.284;7.226;2023-04-03T11:57:45;5.10;99.90
21950;DHT22;11139;51.284;7.226;2023-04-03T12:02:55;5.10;99.90
21950;DHT22;11139;51.284;7.226;2023-04-03T12:05:25;5.20;99.90
21950;DHT22;11139;51.284;7.226;2023-04-03T12:10:35;5.10;99.90
21950;DHT22;11139;51.284;7.226;2023-04-03T12:13:01;5.20;99.90
21950;DHT22;11139;51.284;7.226;2023-04-03T12:15:44;5.20;99.90
21950;DHT22;11139;51.284;7.226;2023-04-03T12:20:55;5.30;99.90
21950;DHT22;11139;51.284;7.226;2023-04-03T12:23:29;5.30;99.90
21950;DHT22;11139;51.284;7.226;2023-04-03T12:28:40;5.40;99.90
21950;DHT22;11139;51.284;7.226;2023-04-03T12:31:06;5.40;99.90
21950;DHT22;11139;51.284;7.226;2023-04-03T12:33:38;5.30;99.90
21950;DHT22;11139;51.284;7.226;2023-04-03T12:36:15;5.40;99.90
21950;DHT22;11139;51.284;7.226;2023-04-03T12:46:24;5.50;99.90
21950;DHT22;11139;51.284;7.226;2023-04-03T12:48:53;5.50;99.90
21950;DHT22;11139;51.284;7.226;2023-04-03T12:51:37;5.50;99.90
21950;DHT22;11139;51.284;7.226;2023-04-03T12:57:47;5.50;99.90
21950;DHT22;11139;51.284;7.226;2023-04-03T12:59:54;5.50;99.90
21950;DHT22;11139;51.284;7.226;2023-04-03T13:02:24;5.50;99.90
21950;DHT22;11139;51.284;7.226;2023-04-03T13:04:51;5.60;99.90
21950;DHT22;11139;51.284;7.226;2023-04-03T13:07:35;5.70;99.90
21950;DHT22;11139;51.284;7.226;2023-04-03T13:12:33;5.70;99.90
21950;DHT22;11139;51.284;7.226;2023-04-03T13:15:00;5.70;99.90
21950;DHT22;11139;51.284;7.226;2023-04-03T13:17:27;5.70;99.90
21950;DHT22;11139;51.284;7.226;2023-04-03T13:19:53;5.70;99.90
21950;DHT22;11139;51.284;7.226;2023-04-03T13:24:47;5.70;99.90
21950;DHT22;11139;51.284;7.226;2023-04-03T13:27:14;5.80;99.90
21950;DHT22;11139;51.284;7.226;2023-04-03T13:29:40;5.80;99.90
21950;DHT22;11139;51.284;7.226;2023-04-03T13:32:05;5.80;99.90
21950;DHT22;11139;51.284;7.226;2023-04-03T13:34:37;5.90;99.90
21950;DHT22;11139;51.284;7.226;2023-04-03T13:37:03;5.90;99.90
21950;DHT22;11139;51.284;7.226;2023-04-03T13:39:30;5.90;99.90
21950;DHT22;11139;51.284;7.226;2023-04-03T13:41:57;5.90;99.90
21950;DHT22;11139;51.284;7.226;2023-04-03T13:49:18;5.90;99.90
21950;DHT22;11139;51.284;7.226;2023-04-03T13:51:43;5.90;99.90
21950;DHT22;11139;51.284;7.226;2023-04-03T13:54:52;5.90;99.90
21950;DHT22;11139;51.284;7.226;2023-04-03T13:56:58;6.00;99.90
21950;DHT22;11139;51.284;7.226;2023-04-03T13:59:25;6.00;99.90
21950;DHT22;11139;51.284;7.226;2023-04-03T14:01:54;6.00;99.90
21950;DHT22;11139;51.284;7.226;2023-04-03T14:04:22;6.00;99.90
21950;DHT22;11139;51.284;7.226;2023-04-03T14:06:49;6.00;99.90
21950;DHT22;11139;51.284;7.226;2023-04-03T14:09:15;6.00;99.90
21950;DHT22;11139;51.284;7.226;2023-04-03T14:11:41;6.00;99.90
21950;DHT22;11139;51.284;7.226;2023-04-03T14:14:14;6.10;99.90
21950;DHT22;11139;51.284;7.226;2023-04-03T14:16:42;6.10;99.90
21950;DHT22;11139;51.284;7.226;2023-04-03T14:19:14;6.10;99.90
21950;DHT22;11139;51.284;7.226;2023-04-03T14:21:41;6.10;99.90
21950;DHT22;11139;51.284;7.226;2023-04-03T14:24:07;6.10;99.90
21950;DHT22;11139;51.284;7.226;2023-04-03T14:26:32;6.10;99.90
21950;DHT22;11139;51.284;7.226;2023-04-03T14:28:58;6.10;99.90
21950;DHT22;11139;51.284;7.226;2023-04-03T14:31:23;6.20;99.90
21950;DHT22;11139;51.284;7.226;2023-04-03T14:33:49;6.20;99.90
21950;DHT22;11139;51.284;7.226;2023-04-03T14:36:16;6.20;99.90
21950;DHT22;11139;51.284;7.226;2023-04-03T14:38:42;6.20;99.90
21950;DHT22;11139;51.284;7.226;2023-04-03T14:41:09;6.10;99.90
21950;DHT22;11139;51.284;7.226;2023-04-03T14:43:35;6.10;99.90
21950;DHT22;11139;51.284;7.226;2023-04-03T14:46:01;6.10;99.90
21950;DHT22;11139;51.284;7.226;2023-04-03T14:48:27;6.20;99.90
21950;DHT22;11139;51.284;7.226;2023-04-03T14:50:53;6.20;99.90
21950;DHT22;11139;51.284;7.226;2023-04-03T14:53:18;6.20;99.90
21950;DHT22;11139;51.284;7.226;2023-04-03T14:55:48;6.10;99.90
21950;DHT22;11139;51.284;7.226;2023-04-03T14:58:14;6.10;99.90
21950;DHT22;11139;51.284;7.226;2023-04-03T15:00:40;6.10;99.90
21950;DHT22;11139;51.284;7.226;2023-04-03T15:03:06;6.20;99.90
21950;DHT22;11139;51.284;7.226;2023-04-03T15:05:31;6.20;99.90
21950;DHT22;11139;51.284;7.226;2023-04-03T15:07:57;6.20;99.90
21950;DHT22;11139;51.284;7.226;2023-04-03T15:10:24;6.20;99.90
21950;DHT22;11139;51.284;7.226;2023-04-03T15:12:50;6.20;99.90
21950;DHT22;11139;51.284;7.226;2023-04-03T15:15:17;6.30;99.90
21950;DHT22;11139;51.284;7.226;2023-04-03T15:17:45;6.20;99.90
21950;DHT22;11139;51.284;7.226;2023-04-03T15:20:11;6.20;99.90
21950;DHT22;11139;51.284;7.226;2023-04-03T15:22:38;6.30;99.90
21950;DHT22;11139;51.284;7.226;2023-04-03T15:25:03;6.20;99.90
21950;DHT22;11139;51.284;7.226;2023-04-03T15:27:29;6.20;99.90
21950;DHT22;11139;51.284;7.226;2023-04-03T15:29:54;6.20;99.90
21950;DHT22;11139;51.284;7.226;2023-04-03T15:32:20;6.20;99.90
21950;DHT22;11139;51.284;7.226;2023-04-03T15:34:45;6.20;99.90
21950;DHT22;11139;51.284;7.226;2023-04-03T15:37:11;6.20;99.90
21950;DHT22;11139;51.284;7.226;2023-04-03T15:39:36;6.20;99.90
21950;DHT22;11139;51.284;7.226;2023-04-03T15:42:02;6.20;99.90
21950;DHT22;11139;51.284;7.226;2023-04-03T15:44:32;6.20;99.90
21950;DHT22;11139;51.284;7.226;2023-04-03T15:46:58;6.20;99.90
21950;DHT22;11139;51.284;7.226;2023-04-03T15:49:24;6.20;99.90
21950;DHT22;11139;51.284;7.226;2023-04-03T15:51:50;6.20;99.90
21950;DHT22;11139;51.284;7.226;2023-04-03T15:54:16;6.20;99.90
21950;DHT22;11139;51.284;7.226;2023-04-03T15:56:41;6.20;99.90
21950;DHT22;11139;51.284;7.226;2023-04-03T15:59:07;6.20;99.90
21950;DHT22;11139;51.284;7.226;2023-04-03T16:01:32;6.20;99.90
21950;DHT22;11139;51.284;7.226;2023-04-03T16:03:58;6.20;99.90
21950;DHT22;11139;51.284;7.226;2023-04-03T16:06:23;6.20;99.90
21950;DHT22;11139;51.284;7.226;2023-04-03T16:08:50;6.10;99.90
21950;DHT22;11139;51.284;7.226;2023-04-03T16:11:16;6.10;99.90
21950;DHT22;11139;51.284;7.226;2023-04-03T16:13:41;6.10;99.90
21950;DHT22;11139;51.284;7.226;2023-04-03T16:16:07;6.10;99.90
21950;DHT22;11139;51.284;7.226;2023-04-03T16:18:33;6.10;99.90
21950;DHT22;11139;51.284;7.226;2023-04-03T16:20:59;6.10;99.90
21950;DHT22;11139;51.284;7.226;2023-04-03T16:23:25;6.10;99.90
21950;DHT22;11139;51.284;7.226;2023-04-03T16:25:50;6.00;99.90
21950;DHT22;11139;51.284;7.226;2023-04-03T16:28:16;6.00;99.90
21950;DHT22;11139;51.284;7.226;2023-04-03T16:30:43;6.00;99.90
21950;DHT22;11139;51.284;7.226;2023-04-03T16:33:09;6.00;99.90
21950;DHT22;11139;51.284;7.226;2023-04-03T16:35:35;6.00;99.90
21950;DHT22;11139;51.284;7.226;2023-04-03T16:38:00;6.00;99.90
21950;DHT22;11139;51.284;7.226;2023-04-03T16:40:26;6.00;99.90
21950;DHT22;11139;51.284;7.226;2023-04-03T16:42:51;6.00;99.90
21950;DHT22;11139;51.284;7.226;2023-04-03T16:45:17;6.00;99.90
21950;DHT22;11139;51.284;7.226;2023-04-03T16:47:42;6.00;99.90
21950;DHT22;11139;51.284;7.226;2023-04-03T16:50:08;6.00;99.90
21950;DHT22;11139;51.284;7.226;2023-04-03T16:52:33;5.90;99.90
21950;DHT22;11139;51.284;7.226;2023-04-03T16:54:59;6.00;99.90
21950;DHT22;11139;51.284;7.226;2023-04-03T16:57:25;5.90;99.90
21950;DHT22;11139;51.284;7.226;2023-04-03T16:59:50;6.00;99.90
21950;DHT22;11139;51.284;7.226;2023-04-03T17:02:16;5.90;99.90
21950;DHT22;11139;51.284;7.226;2023-04-03T17:04:42;5.90;99.90
21950;DHT22;11139;51.284;7.226;2023-04-03T17:07:07;5.90;99.90
21950;DHT22;11139;51.284;7.226;2023-04-03T17:09:33;5.90;99.90
21950;DHT22;11139;51.284;7.226;2023-04-03T17:11:58;5.90;99.90
21950;DHT22;11139;51.284;7.226;2023-04-03T17:14:24;5.90;99.90
21950;DHT22;11139;51.284;7.226;2023-04-03T17:16:50;5.90;99.90
21950;DHT22;11139;51.284;7.226;2023-04-03T17:19:16;5.90;99.90